Time;durP1;ratioP1;P1;durP2;ratioP2;P2;SDS_P1;SDS_P2;PMS_P1;PMS_P2;Temp;Humidity;BMP_temperature;BMP_pressure;BME280_temperature;BME280_humidity;BME280_pressure;Samples;Min_cycle;Max_cycle;Signal;HPM_P1;HPM_P2
2022/02/26 00:02:20;;;;;;;0.70;0.70;;;;;;;4.19;93.98;98965.88;5109763;28;20049;-92
2022/02/26 00:04:47;;;;;;;0.80;0.80;;;;;;;4.16;93.97;98989.56;5111618;28;20040;-91
2022/02/26 00:07:13;;;;;;;0.80;0.80;;;;;;;4.20;95.11;98992.19;5111614;28;20066;-93
2022/02/26 00:09:44;;;;;;;0.70;0.70;;;;;;;3.81;93.18;98985.94;5111608;28;20040;-92
2022/02/26 00:12:10;;;;;;;0.60;0.60;;;;;;;3.74;94.05;98988.56;5111628;28;20048;-93
2022/02/26 00:14:36;;;;;;;0.70;0.70;;;;;;;3.73;97.94;98974.53;5112009;28;20550;-94
2022/02/26 00:17:03;;;;;;;0.70;0.70;;;;;;;3.80;94.53;99012.25;5111585;28;20036;-90
2022/02/26 00:19:31;;;;;;;0.73;0.73;;;;;;;3.85;92.90;99013.16;5098850;28;20048;-92
2022/02/26 00:21:58;;;;;;;0.60;0.60;;;;;;;3.78;92.80;99020.13;5097933;28;20138;-93
2022/02/26 00:24:24;;;;;;;0.80;0.80;;;;;;;3.61;94.49;98993.75;5097766;28;20054;-94
2022/02/26 00:26:50;;;;;;;0.60;0.60;;;;;;;3.66;92.43;99006.94;5097145;28;20048;-91
2022/02/26 00:29:17;;;;;;;0.80;0.80;;;;;;;3.76;92.89;99023.63;5096408;28;20060;-91
2022/02/26 00:31:42;;;;;;;0.70;0.70;;;;;;;3.47;91.53;99013.84;5095858;28;20043;-90
2022/02/26 00:34:10;;;;;;;0.80;0.80;;;;;;;3.40;92.41;99007.66;5096964;28;20036;-91
2022/02/26 00:36:35;;;;;;;0.80;0.80;;;;;;;3.42;92.79;99029.59;5096836;28;20430;-90
2022/02/26 00:39:02;;;;;;;0.80;0.80;;;;;;;3.43;92.53;99039.25;5096525;28;20083;-91
2022/02/26 00:41:28;;;;;;;0.70;0.70;;;;;;;3.31;92.91;99030.41;5096836;28;20051;-90
2022/02/26 00:43:53;;;;;;;0.60;0.60;;;;;;;3.40;92.51;99047.09;5096333;28;20158;-93
2022/02/26 00:46:19;;;;;;;0.60;0.60;;;;;;;3.24;91.36;99040.00;5096405;28;20051;-90
2022/02/26 00:51:45;;;;;;;0.70;0.70;;;;;;;3.41;93.44;99069.91;5112090;27;20391;-93
2022/02/26 00:54:11;;;;;;;0.70;0.70;;;;;;;3.23;92.78;99067.13;5112529;28;20036;-93
2022/02/26 00:56:37;;;;;;;0.60;0.60;;;;;;;3.23;93.21;99078.56;5112469;28;20050;-94
2022/02/26 00:59:03;;;;;;;0.80;0.80;;;;;;;3.10;93.82;99079.31;5112441;28;20036;-91
2022/02/26 01:01:29;;;;;;;0.70;0.70;;;;;;;3.16;93.71;99081.97;5110561;28;20509;-91
2022/02/26 01:03:55;;;;;;;0.70;0.70;;;;;;;3.02;94.63;99062.63;5111913;28;20059;-93
2022/02/26 01:06:20;;;;;;;0.70;0.70;;;;;;;3.06;93.71;99067.91;5111188;28;20040;-91
2022/02/26 01:08:48;;;;;;;0.70;0.70;;;;;;;3.03;93.83;99065.25;5111515;28;20040;-93
2022/02/26 01:11:14;;;;;;;0.70;0.70;;;;;;;2.96;93.79;99078.34;5111656;28;20031;-92
2022/02/26 01:13:39;;;;;;;0.70;0.70;;;;;;;2.91;94.13;99059.91;5111599;28;20101;-93
2022/02/26 01:16:05;;;;;;;0.80;0.80;;;;;;;2.92;94.26;99073.91;5111218;28;20497;-92
2022/02/26 01:18:31;;;;;;;0.65;0.65;;;;;;;3.02;94.32;99086.28;5111064;28;20119;-91
2022/02/26 01:20:57;;;;;;;0.82;0.82;;;;;;;2.90;94.63;99067.78;5111732;28;20119;-92
2022/02/26 01:23:23;;;;;;;0.70;0.70;;;;;;;2.78;96.13;99063.31;5111610;28;20485;-94
2022/02/26 01:25:50;;;;;;;0.82;0.82;;;;;;;2.83;94.77;99077.34;5111461;28;20039;-93
2022/02/26 01:28:16;;;;;;;0.70;0.70;;;;;;;2.96;94.39;99101.97;5109898;28;20051;-92
2022/02/26 01:30:42;;;;;;;0.80;0.80;;;;;;;2.88;94.62;99088.75;5109159;28;20031;-93
2022/02/26 01:33:07;;;;;;;0.65;0.65;;;;;;;2.87;93.73;99097.53;5110851;28;20106;-91
2022/02/26 01:35:33;;;;;;;0.70;0.70;;;;;;;2.88;95.50;99089.66;5110912;28;20048;-91
2022/02/26 01:37:59;;;;;;;0.70;0.70;;;;;;;2.85;94.12;99094.00;5110603;28;20039;-95
2022/02/26 01:40:25;;;;;;;0.90;0.90;;;;;;;2.73;94.14;99079.00;5111354;28;20044;-92
2022/02/26 01:42:52;;;;;;;0.80;0.80;;;;;;;2.70;95.28;99093.84;5110722;28;20040;-93
2022/02/26 01:45:19;;;;;;;1.58;0.70;;;;;;;2.75;96.32;99113.16;5109768;28;20073;-93
2022/02/26 01:47:45;;;;;;;0.70;0.70;;;;;;;2.60;97.12;99104.28;5110871;28;20040;-93
2022/02/26 01:50:14;;;;;;;0.70;0.70;;;;;;;2.54;96.68;99106.84;5110746;28;20182;-91
2022/02/26 01:52:41;;;;;;;0.70;0.70;;;;;;;2.46;97.10;99112.00;5110791;28;20048;-90
2022/02/26 01:55:07;;;;;;;0.70;0.70;;;;;;;2.39;96.99;99122.41;5111577;28;20505;-91
2022/02/26 01:57:33;;;;;;;0.90;0.90;;;;;;;2.38;98.12;99121.50;5110623;28;20040;-91
2022/02/26 02:00:03;;;;;;;0.70;0.70;;;;;;;2.32;97.42;99120.56;5110202;28;20040;-91
2022/02/26 02:02:28;;;;;;;0.85;0.85;;;;;;;2.37;98.19;99126.78;5099846;28;20047;-92
2022/02/26 02:04:54;;;;;;;0.73;0.73;;;;;;;2.33;98.44;99117.97;5097170;28;20040;-91
2022/02/26 02:07:20;;;;;;;0.80;0.80;;;;;;;2.29;97.96;99112.66;5097446;28;20064;-92
2022/02/26 02:09:46;;;;;;;0.70;0.70;;;;;;;2.19;97.46;99102.06;5097286;28;20040;-91
2022/02/26 02:12:12;;;;;;;0.80;0.80;;;;;;;2.30;98.15;99112.69;5096361;28;20036;-90
2022/02/26 02:14:38;;;;;;;0.80;0.80;;;;;;;2.24;99.15;99100.38;5097083;28;20493;-95
2022/02/26 02:17:05;;;;;;;0.70;0.70;;;;;;;2.14;98.80;99116.88;5097640;28;20047;-92
2022/02/26 02:19:31;;;;;;;0.70;0.70;;;;;;;2.11;99.68;99115.97;5097051;28;20482;-93
2022/02/26 02:21:57;;;;;;;0.80;0.80;;;;;;;2.19;98.44;99099.44;5097284;28;20046;-92
2022/02/26 02:24:24;;;;;;;0.70;0.70;;;;;;;2.21;98.72;99116.09;5098531;28;20063;-92
2022/02/26 02:26:51;;;;;;;0.82;0.82;;;;;;;2.21;98.44;99105.59;5097601;28;20103;-94
2022/02/26 02:29:17;;;;;;;0.70;0.70;;;;;;;2.40;96.92;99126.78;5097131;28;20131;-91
2022/02/26 02:31:43;;;;;;;0.80;0.80;;;;;;;2.20;97.69;99101.19;5096717;28;20107;-93
2022/02/26 02:34:09;;;;;;;0.80;0.80;;;;;;;2.14;98.04;99087.13;5097538;28;20400;-93
2022/02/26 02:36:42;;;;;;;0.80;0.80;;;;;;;2.14;99.21;99095.00;5096984;28;20036;-92
2022/02/26 02:39:08;;;;;;;0.80;0.80;;;;;;;2.27;97.73;99110.03;5097159;28;20082;-93
2022/02/26 02:41:35;;;;;;;0.98;0.98;;;;;;;2.29;98.57;99110.03;5097187;28;20044;-92
2022/02/26 02:44:01;;;;;;;0.90;0.90;;;;;;;2.18;98.03;99097.69;5096789;28;20577;-92
2022/02/26 02:46:27;;;;;;;0.80;0.80;;;;;;;1.96;98.68;99079.94;5096839;28;20075;-92
2022/02/26 02:48:54;;;;;;;0.80;0.80;;;;;;;2.17;98.85;99082.81;5096580;28;20058;-91
2022/02/26 02:51:20;;;;;;;0.73;0.73;;;;;;;2.28;97.46;99087.28;5096123;28;20648;-92
2022/02/26 02:53:46;;;;;;;0.82;0.82;;;;;;;2.24;96.95;99075.88;5096840;28;20036;-91
2022/02/26 02:56:12;;;;;;;0.85;0.80;;;;;;;2.22;97.80;99104.72;5096688;28;20093;-92
2022/02/26 02:58:39;;;;;;;0.98;0.98;;;;;;;2.09;98.08;99079.22;5096556;28;20066;-93
2022/02/26 03:01:05;;;;;;;0.80;0.80;;;;;;;2.31;97.99;99103.06;5095771;28;20559;-92
2022/02/26 03:03:31;;;;;;;0.80;0.80;;;;;;;2.24;96.98;99047.91;5096151;28;20097;-95
2022/02/26 03:05:57;;;;;;;0.70;0.70;;;;;;;2.19;97.95;99064.44;5096867;28;20032;-92
2022/02/26 03:08:24;;;;;;;0.85;0.82;;;;;;;2.17;97.67;99064.44;5096482;28;20074;-93
2022/02/26 03:10:50;;;;;;;0.80;0.80;;;;;;;2.29;97.88;99079.44;5095707;28;20039;-92
2022/02/26 03:13:16;;;;;;;0.80;0.80;;;;;;;2.14;98.21;99059.16;5094908;28;20040;-92
2022/02/26 03:15:43;;;;;;;0.80;0.80;;;;;;;2.30;97.68;99082.94;5095203;28;20485;-92
2022/02/26 03:18:09;;;;;;;0.90;0.90;;;;;;;2.29;98.18;99095.19;5094221;28;20546;-92
2022/02/26 03:20:35;;;;;;;0.90;0.90;;;;;;;2.35;97.95;99094.38;5096552;28;20044;-91
2022/02/26 03:23:01;;;;;;;0.77;0.77;;;;;;;2.24;98.09;99049.66;5096285;28;20537;-94
2022/02/26 03:25:27;;;;;;;0.90;0.90;;;;;;;2.37;97.94;99079.53;5096185;28;20127;-94
2022/02/26 03:27:53;;;;;;;0.98;0.98;;;;;;;2.41;96.72;99071.69;5096595;28;20036;-93
2022/02/26 03:30:19;;;;;;;0.80;0.80;;;;;;;2.57;96.90;99090.22;5098482;28;20092;-94
2022/02/26 03:32:46;;;;;;;1.00;1.00;;;;;;;2.58;97.43;99087.63;5096232;28;20040;-92
2022/02/26 03:35:13;;;;;;;1.00;1.00;;;;;;;2.59;95.75;99070.13;5096173;28;20032;-91
2022/02/26 03:37:38;;;;;;;0.93;0.93;;;;;;;2.67;95.54;99082.47;5085606;28;20139;-93
2022/02/26 03:40:06;;;;;;;0.90;0.90;;;;;;;2.47;96.48;99065.63;5096427;28;20497;-93
2022/02/26 03:42:32;;;;;;;0.80;0.80;;;;;;;2.70;94.71;99076.34;5095949;28;20048;-94
2022/02/26 03:44:58;;;;;;;0.90;0.90;;;;;;;2.55;96.76;99052.59;5096429;28;20062;-92
2022/02/26 03:47:24;;;;;;;0.80;0.80;;;;;;;2.61;95.19;99071.03;5095795;28;20123;-92
2022/02/26 03:49:51;;;;;;;0.80;0.80;;;;;;;2.75;95.44;99071.13;5095963;28;20130;-91
2022/02/26 03:52:19;;;;;;;0.95;0.82;;;;;;;2.78;94.26;99056.28;5096506;28;20044;-94
2022/02/26 03:54:45;;;;;;;0.80;0.80;;;;;;;2.56;93.95;99036.84;5096584;28;20044;-93
2022/02/26 03:57:10;;;;;;;1.38;0.90;;;;;;;2.70;93.29;99046.59;5097858;28;20135;-93
2022/02/26 03:59:37;;;;;;;0.80;0.80;;;;;;;2.82;92.87;99067.69;5095831;28;20541;-93
2022/02/26 04:02:04;;;;;;;1.35;0.80;;;;;;;2.74;92.85;99049.25;5095387;28;20512;-93
2022/02/26 04:04:30;;;;;;;0.80;0.80;;;;;;;2.68;92.92;99038.69;5095802;28;20493;-91
2022/02/26 04:06:57;;;;;;;0.90;0.90;;;;;;;2.78;92.21;99048.41;5095383;28;20173;-92
2022/02/26 04:09:23;;;;;;;0.73;0.73;;;;;;;2.67;92.18;99036.94;5095192;28;20048;-92
2022/02/26 04:11:49;;;;;;;0.70;0.70;;;;;;;2.71;92.71;99044.00;5095059;28;20093;-92
2022/02/26 04:14:15;;;;;;;0.73;0.73;;;;;;;2.56;93.29;99033.31;5091865;28;20505;-92
2022/02/26 04:16:41;;;;;;;0.80;0.80;;;;;;;2.78;94.73;99052.81;5093360;28;20048;-94
2022/02/26 04:19:07;;;;;;;0.80;0.80;;;;;;;2.62;93.59;99021.16;5094388;28;20040;-92
2022/02/26 04:21:33;;;;;;;0.80;0.80;;;;;;;2.94;93.06;99062.56;5094166;28;20048;-91
2022/02/26 04:24:01;;;;;;;0.82;0.82;;;;;;;2.83;91.68;99043.19;5094292;28;20142;-92
2022/02/26 04:26:27;;;;;;;1.25;0.90;;;;;;;2.92;90.64;99053.78;5094925;28;20375;-92
2022/02/26 04:28:54;;;;;;;0.90;0.90;;;;;;;2.78;91.02;99029.16;5094957;28;20135;-92
2022/02/26 04:31:21;;;;;;;0.98;0.95;;;;;;;2.82;91.79;99046.69;5093543;28;20043;-90
2022/02/26 04:33:48;;;;;;;0.90;0.90;;;;;;;2.79;91.51;99025.66;5096436;28;20066;-94
2022/02/26 04:36:14;;;;;;;0.80;0.80;;;;;;;2.82;90.38;99020.41;5095067;28;20497;-91
2022/02/26 04:38:41;;;;;;;0.88;0.88;;;;;;;2.79;90.53;99017.78;5094528;28;20047;-93
2022/02/26 04:41:08;;;;;;;0.95;0.95;;;;;;;2.74;91.25;99027.38;5094745;28;20040;-92
2022/02/26 04:43:37;;;;;;;1.08;0.98;;;;;;;2.78;91.40;99021.28;5094837;28;20048;-94
2022/02/26 04:46:03;;;;;;;1.30;0.90;;;;;;;2.80;91.27;99011.69;5093398;28;20036;-94
2022/02/26 04:48:30;;;;;;;1.00;1.00;;;;;;;2.80;92.37;99020.44;5094338;28;20512;-91
2022/02/26 04:50:56;;;;;;;1.05;1.00;;;;;;;2.83;91.88;99022.19;5093590;28;20394;-92
2022/02/26 04:53:22;;;;;;;0.82;0.80;;;;;;;2.87;90.34;99023.97;5094060;28;20047;-91
2022/02/26 04:55:48;;;;;;;0.82;0.82;;;;;;;2.88;91.02;99036.22;5094866;28;20051;-93
2022/02/26 04:58:16;;;;;;;1.13;1.10;;;;;;;2.88;91.00;99028.34;5094182;28;20078;-92
2022/02/26 05:00:42;;;;;;;1.08;0.90;;;;;;;2.75;90.14;99000.22;5093515;28;20840;-93
2022/02/26 05:03:07;;;;;;;0.90;0.90;;;;;;;3.02;88.73;99031.09;5094243;28;20044;-91
2022/02/26 05:05:33;;;;;;;1.00;1.00;;;;;;;2.91;88.76;99009.09;5093916;28;20165;-91
2022/02/26 05:07:59;;;;;;;0.90;0.90;;;;;;;2.96;89.06;99023.16;5094190;28;20039;-92
2022/02/26 05:10:25;;;;;;;0.90;0.90;;;;;;;2.99;89.39;99018.81;5093946;28;20123;-92
2022/02/26 05:12:51;;;;;;;0.88;0.88;;;;;;;2.92;88.55;98990.72;5094096;28;20058;-92
2022/02/26 05:15:19;;;;;;;1.00;1.00;;;;;;;2.94;89.02;99004.75;5093215;28;20036;-93
2022/02/26 05:17:45;;;;;;;1.48;1.20;;;;;;;3.04;87.85;99008.34;5094336;28;20040;-91
2022/02/26 05:20:12;;;;;;;1.20;1.10;;;;;;;3.02;88.19;99004.84;5093863;28;20040;-92
2022/02/26 05:22:39;;;;;;;0.90;0.90;;;;;;;3.10;87.60;99005.72;5094433;28;20048;-92
2022/02/26 05:25:06;;;;;;;1.00;1.00;;;;;;;3.01;88.33;98995.16;5094646;28;20056;-93
2022/02/26 05:27:32;;;;;;;1.42;1.10;;;;;;;3.07;87.38;99003.97;5094006;28;20048;-95
2022/02/26 05:29:58;;;;;;;1.00;1.00;;;;;;;3.06;87.33;99012.75;5094042;28;20123;-93
2022/02/26 05:32:25;;;;;;;1.00;1.00;;;;;;;2.89;86.88;98993.34;5093799;28;20097;-93
2022/02/26 05:34:52;;;;;;;0.90;0.90;;;;;;;2.96;87.39;98996.91;5094120;28;20044;-92
2022/02/26 05:37:18;;;;;;;1.75;1.00;;;;;;;3.13;87.13;99020.66;5095200;28;20481;-90
2022/02/26 05:39:44;;;;;;;1.25;1.15;;;;;;;3.01;86.15;98996.03;5097965;28;20374;-92
2022/02/26 05:42:10;;;;;;;0.90;0.90;;;;;;;3.04;87.74;99017.09;5097340;28;20044;-94
2022/02/26 05:44:35;;;;;;;0.90;0.90;;;;;;;3.09;86.13;99022.38;5097947;28;20048;-93
2022/02/26 05:47:01;;;;;;;0.90;0.90;;;;;;;3.19;85.99;99039.06;5098022;28;20448;-94
2022/02/26 05:49:29;;;;;;;1.10;1.00;;;;;;;3.08;85.98;99026.75;5097386;28;20119;-92
2022/02/26 05:51:55;;;;;;;0.88;0.88;;;;;;;3.26;85.90;99046.16;5099466;28;20428;-93
2022/02/26 05:54:21;;;;;;;1.30;1.20;;;;;;;3.29;84.71;99044.41;5099047;28;20168;-94
2022/02/26 05:56:47;;;;;;;1.30;1.20;;;;;;;3.12;84.95;99021.53;5097764;28;20396;-95
2022/02/26 05:59:13;;;;;;;1.25;1.20;;;;;;;3.25;88.66;99041.75;5097535;28;20040;-93
2022/02/26 06:01:38;;;;;;;1.00;0.93;;;;;;;3.14;87.82;99031.16;5098673;28;20066;-92
2022/02/26 06:04:04;;;;;;;1.00;1.00;;;;;;;3.10;88.51;99026.75;5098048;28;20040;-92
2022/02/26 06:06:32;;;;;;;1.08;1.08;;;;;;;3.18;86.17;99046.09;5097813;28;20097;-92
2022/02/26 06:08:58;;;;;;;0.90;0.90;;;;;;;3.17;86.42;99062.75;5097675;28;20143;-94
2022/02/26 06:11:24;;;;;;;1.00;1.00;;;;;;;3.02;86.99;99029.34;5098097;28;20043;-94
2022/02/26 06:13:51;;;;;;;1.27;1.20;;;;;;;3.02;87.40;99034.59;5097621;28;20044;-92
2022/02/26 06:16:17;;;;;;;2.17;1.30;;;;;;;3.02;87.41;99038.97;5096541;28;20036;-93
2022/02/26 06:18:43;;;;;;;1.33;1.25;;;;;;;2.98;86.95;99038.06;5096998;28;20573;-95
2022/02/26 06:21:09;;;;;;;1.77;1.20;;;;;;;3.22;86.42;99063.63;5097263;28;20126;-94
2022/02/26 06:23:37;;;;;;;1.35;1.23;;;;;;;3.22;86.81;99057.50;5096802;28;20040;-93
2022/02/26 06:26:03;;;;;;;2.22;1.42;;;;;;;3.15;86.41;99067.09;5096693;28;20047;-92
2022/02/26 06:28:29;;;;;;;2.70;1.33;;;;;;;3.20;85.77;99061.88;5097003;28;20477;-91
2022/02/26 06:30:55;;;;;;;1.27;1.13;;;;;;;3.07;86.41;99040.75;5096230;28;20068;-93
2022/02/26 06:33:21;;;;;;;2.35;1.50;;;;;;;3.29;85.23;99069.81;5096727;28;20044;-95
2022/02/26 06:35:47;;;;;;;1.48;1.38;;;;;;;3.17;84.87;99059.25;5096914;28;20123;-92
2022/02/26 06:38:13;;;;;;;1.30;1.20;;;;;;;3.21;83.81;99039.97;5097365;28;20071;-92
2022/02/26 06:40:40;;;;;;;1.30;1.20;;;;;;;3.22;84.16;99053.13;5096932;28;20430;-93
2022/02/26 06:43:07;;;;;;;1.00;1.00;;;;;;;3.35;82.46;99075.13;5096690;28;20048;-92
2022/02/26 06:45:32;;;;;;;1.58;1.20;;;;;;;3.32;83.19;99055.81;5096116;28;20050;-94
2022/02/26 06:47:58;;;;;;;1.30;1.20;;;;;;;3.27;81.41;99047.91;5097212;28;20044;-95
2022/02/26 06:50:24;;;;;;;1.40;1.30;;;;;;;3.47;81.00;99075.22;5097023;28;20476;-93
2022/02/26 06:52:50;;;;;;;1.40;1.30;;;;;;;3.41;81.89;99079.56;5099313;28;20410;-95
2022/02/26 06:55:16;;;;;;;2.05;1.20;;;;;;;3.36;82.17;99063.75;5098408;28;20052;-93
2022/02/26 06:57:44;;;;;;;1.90;1.20;;;;;;;3.39;80.48;99082.16;5097968;28;20047;-93
2022/02/26 07:00:12;;;;;;;1.30;1.20;;;;;;;3.42;80.60;99081.28;5098271;28;20157;-93
2022/02/26 07:02:39;;;;;;;2.30;1.33;;;;;;;3.33;82.20;99075.97;5098097;28;20044;-94
2022/02/26 07:05:05;;;;;;;1.75;1.45;;;;;;;3.34;81.28;99093.50;5098085;28;20046;-92
2022/02/26 07:07:31;;;;;;;2.90;1.30;;;;;;;3.15;81.19;99069.72;5097530;28;20136;-93
2022/02/26 07:09:57;;;;;;;1.60;1.38;;;;;;;3.28;81.31;99078.59;5098268;28;20063;-92
2022/02/26 07:12:23;;;;;;;2.42;1.33;;;;;;;3.29;81.31;99091.72;5098721;28;20039;-94
2022/02/26 07:14:51;;;;;;;1.30;1.20;;;;;;;3.33;81.41;99083.88;5098309;28;20040;-92
2022/02/26 07:17:16;;;;;;;1.38;1.20;;;;;;;3.28;80.64;99078.59;5097049;28;20040;-93
2022/02/26 07:19:43;;;;;;;1.40;1.30;;;;;;;3.27;79.79;99090.84;5098953;28;20503;-92
2022/02/26 07:22:09;;;;;;;2.00;1.30;;;;;;;3.19;80.78;99076.78;5099972;28;20093;-93
2022/02/26 07:24:35;;;;;;;2.72;1.23;;;;;;;3.34;77.86;99077.72;5096185;28;20596;-92
2022/02/26 07:27:00;;;;;;;2.20;1.30;;;;;;;3.40;78.99;99077.78;5098489;28;20097;-94
2022/02/26 07:29:26;;;;;;;2.38;1.73;;;;;;;3.47;80.21;99064.69;5100230;28;20401;-95
2022/02/26 07:32:06;;;;;;;4.13;1.98;;;;;;;3.57;77.75;99117.34;5099097;28;20504;-92
2022/02/26 07:34:39;;;;;;;3.90;2.58;;;;;;;3.45;78.26;99092.72;5100336;28;20547;-93
2022/02/26 07:37:06;;;;;;;5.38;2.40;;;;;;;3.36;77.94;99070.72;5098561;28;20074;-95
2022/02/26 07:39:32;;;;;;;4.63;2.22;;;;;;;3.41;77.74;99090.06;5098723;28;20151;-93
2022/02/26 07:41:58;;;;;;;5.53;2.92;;;;;;;3.46;78.21;99090.97;5097313;28;20501;-93
2022/02/26 07:44:24;;;;;;;3.83;2.35;;;;;;;3.35;78.12;99103.16;5096373;28;20059;-94
2022/02/26 07:46:50;;;;;;;4.43;2.53;;;;;;;3.42;80.30;99100.56;5096501;28;20040;-93
2022/02/26 07:49:18;;;;;;;3.00;1.80;;;;;;;3.22;77.37;99100.44;5096147;28;20048;-92
2022/02/26 07:51:44;;;;;;;13.75;7.95;;;;;;;3.40;78.52;99120.72;5096693;28;20040;-92
2022/02/26 07:54:09;;;;;;;6.18;1.70;;;;;;;3.38;77.88;99105.81;5097486;28;20047;-94
2022/02/26 07:56:35;;;;;;;5.75;3.00;;;;;;;3.32;77.96;99096.13;5097148;28;20070;-93
2022/02/26 07:59:01;;;;;;;6.15;3.17;;;;;;;3.37;78.97;99114.56;5096949;28;20401;-93
2022/02/26 08:01:27;;;;;;;4.13;2.42;;;;;;;3.67;79.44;99122.66;5096873;28;20055;-93
2022/02/26 08:03:53;;;;;;;2.13;1.58;;;;;;;3.64;78.24;99124.38;5096686;28;20044;-94
2022/02/26 08:06:20;;;;;;;2.20;1.65;;;;;;;3.64;77.87;99129.63;5096811;28;20116;-94
2022/02/26 08:08:47;;;;;;;1.48;1.38;;;;;;;3.72;77.80;99120.06;5096521;28;20040;-94
2022/02/26 08:11:13;;;;;;;5.82;2.25;;;;;;;3.61;78.43;99124.38;5095283;28;20443;-93
2022/02/26 08:13:39;;;;;;;6.47;2.50;;;;;;;3.50;78.18;99122.53;5095107;28;20123;-95
2022/02/26 08:16:05;;;;;;;3.38;1.70;;;;;;;3.62;78.38;99147.16;5095793;28;20044;-93
2022/02/26 08:18:30;;;;;;;5.85;3.58;;;;;;;3.77;79.96;99149.00;5097257;28;20103;-94
2022/02/26 08:20:57;;;;;;;4.13;1.85;;;;;;;3.89;78.86;99128.91;5096625;28;20504;-93
2022/02/26 08:23:24;;;;;;;4.32;2.80;;;;;;;3.80;78.74;99144.66;5095915;28;20040;-94
2022/02/26 08:25:50;;;;;;;5.00;1.45;;;;;;;3.72;76.71;99120.06;5095911;28;20036;-93
2022/02/26 08:28:16;;;;;;;3.50;2.10;;;;;;;3.65;78.37;99137.56;5096130;28;20047;-92
2022/02/26 08:30:42;;;;;;;3.22;1.58;;;;;;;3.67;78.52;99140.19;5095924;28;20074;-94
2022/02/26 08:33:08;;;;;;;3.05;1.65;;;;;;;3.85;79.30;99144.69;5096627;28;20060;-92
2022/02/26 08:35:34;;;;;;;5.15;1.90;;;;;;;3.92;76.83;99138.56;5096033;28;20050;-94
2022/02/26 08:37:59;;;;;;;4.47;2.22;;;;;;;3.76;77.38;99127.09;5095989;28;20042;-94
2022/02/26 08:40:27;;;;;;;3.22;1.95;;;;;;;3.96;77.88;99132.47;5094938;28;20048;-93
2022/02/26 08:42:53;;;;;;;4.22;2.80;;;;;;;4.08;75.96;99126.41;5094834;28;20067;-93
2022/02/26 08:45:19;;;;;;;2.85;1.70;;;;;;;3.94;75.78;99114.91;5094629;28;20082;-93
2022/02/26 08:47:45;;;;;;;2.78;1.73;;;;;;;4.15;75.37;99130.81;5095048;28;20214;-95
2022/02/26 08:50:13;;;;;;;4.72;1.80;;;;;;;4.07;74.60;99128.13;5094888;28;21502;-94
2022/02/26 08:52:40;;;;;;;3.63;2.10;;;;;;;4.22;75.46;99136.97;5094875;28;20044;-95
2022/02/26 08:55:08;;;;;;;3.30;1.85;;;;;;;4.37;73.93;99128.25;5095142;28;20428;-94
2022/02/26 08:57:35;;;;;;;5.00;1.70;;;;;;;4.47;73.09;99145.88;5094323;28;20064;-94
2022/02/26 09:00:01;;;;;;;7.82;2.05;;;;;;;4.22;73.57;99114.16;5094621;28;20068;-95
2022/02/26 09:02:27;;;;;;;4.28;2.03;;;;;;;4.27;73.94;99112.44;5095338;28;20097;-95
2022/02/26 09:04:53;;;;;;;2.53;1.80;;;;;;;4.21;73.87;99133.47;5094115;28;20048;-95
2022/02/26 09:07:19;;;;;;;5.45;2.08;;;;;;;4.28;73.55;99165.97;5095382;28;20036;-91
2022/02/26 09:09:45;;;;;;;3.90;1.90;;;;;;;3.84;74.79;99135.03;5094369;28;20036;-94
2022/02/26 09:12:11;;;;;;;4.00;2.22;;;;;;;4.10;75.49;99150.97;5097503;28;20032;-94
2022/02/26 09:14:38;;;;;;;2.67;1.80;;;;;;;4.07;77.68;99130.75;5098222;28;20040;-95
2022/02/26 09:17:05;;;;;;;4.82;1.80;;;;;;;3.95;75.66;99135.06;5098236;28;20516;-94
2022/02/26 09:19:31;;;;;;;3.47;2.00;;;;;;;3.87;76.85;99114.00;5098655;28;20036;-93
2022/02/26 09:21:56;;;;;;;3.13;1.67;;;;;;;3.87;77.61;99125.41;5099258;28;20136;-92
2022/02/26 09:24:22;;;;;;;4.72;1.63;;;;;;;4.12;78.43;99125.53;5098334;28;20064;-95
2022/02/26 09:26:48;;;;;;;2.50;1.65;;;;;;;3.94;76.52;99123.69;5098637;28;20036;-93
2022/02/26 09:29:15;;;;;;;4.88;1.80;;;;;;;4.08;78.37;99144.81;5098458;28;20055;-94
2022/02/26 09:31:42;;;;;;;2.30;1.80;;;;;;;4.27;78.07;99115.06;5097953;28;20047;-94
2022/02/26 09:34:09;;;;;;;3.25;1.55;;;;;;;4.10;79.07;99111.50;5097858;28;20062;-94
2022/02/26 09:36:35;;;;;;;3.90;2.15;;;;;;;4.44;78.76;99125.63;5098145;28;20048;-92
2022/02/26 09:39:01;;;;;;;5.32;3.00;;;;;;;4.60;78.42;99131.84;5098112;28;20048;-95
2022/02/26 09:41:27;;;;;;;4.20;1.80;;;;;;;4.27;77.60;99122.97;5097984;28;20547;-94
2022/02/26 09:43:54;;;;;;;2.53;1.70;;;;;;;4.11;80.43;99131.66;5098358;28;20036;-94
2022/02/26 09:46:21;;;;;;;3.95;2.28;;;;;;;4.11;80.14;99121.13;5098427;28;20046;-91
2022/02/26 09:48:49;;;;;;;7.18;2.92;;;;;;;3.97;80.03;99122.81;5097639;28;20105;-95
2022/02/26 09:51:16;;;;;;;4.15;1.95;;;;;;;3.95;80.93;99140.34;5097694;28;20164;-92
2022/02/26 09:53:42;;;;;;;6.75;2.83;;;;;;;3.80;81.62;99125.38;5097604;28;20147;-93
2022/02/26 09:56:08;;;;;;;2.28;1.75;;;;;;;4.12;81.16;99159.75;5097471;28;20422;-95
2022/02/26 09:58:34;;;;;;;2.80;1.85;;;;;;;3.77;83.05;99130.59;5097046;28;20052;-93
2022/02/26 10:01:00;;;;;;;3.88;1.98;;;;;;;3.96;82.89;99147.38;5096442;28;20041;-93
2022/02/26 10:03:28;;;;;;;2.55;1.88;;;;;;;3.88;82.59;99148.22;5097480;28;20032;-93
2022/02/26 10:06:07;;;;;;;3.70;2.03;;;;;;;4.03;82.23;99157.94;5097844;28;20076;-95
2022/02/26 10:08:37;;;;;;;;;;;;;;;4.42;81.97;99151.09;5099035;28;20044;-94
2022/02/26 10:11:03;;;;;;;5.13;2.65;;;;;;;4.49;81.21;99128.31;5082809;28;19960;-93
2022/02/26 10:13:34;;;;;;;2.33;1.60;;;;;;;4.92;77.60;99117.84;5097930;28;20041;-94
2022/02/26 10:16:00;;;;;;;3.83;2.40;;;;;;;5.12;79.64;99110.84;5097867;28;20501;-93
2022/02/26 10:18:26;;;;;;;2.22;1.77;;;;;;;5.71;76.05;99129.28;5096575;28;20089;-91
2022/02/26 10:20:54;;;;;;;3.03;2.05;;;;;;;6.09;76.84;99117.75;5097935;28;20100;-92
2022/02/26 10:23:22;;;;;;;3.50;2.30;;;;;;;5.80;74.99;99104.63;5096182;28;20131;-93
2022/02/26 10:25:51;;;;;;;3.20;2.13;;;;;;;6.28;73.70;99097.44;5095941;28;20509;-94
2022/02/26 10:28:17;;;;;;;;;;;;;;;5.80;75.33;99118.69;5096927;28;20497;-93
2022/02/26 10:30:46;;;;;;;1.77;1.50;;;;;;;5.84;75.38;99091.41;5100540;28;19920;-93
2022/02/26 10:33:13;;;;;;;4.87;2.00;;;;;;;5.42;76.40;99074.81;5097532;28;20044;-90
2022/02/26 10:35:43;;;;;;;4.40;2.67;;;;;;;5.49;77.12;99081.81;5094087;28;20289;-92
2022/02/26 10:38:24;;;;;;;5.70;2.78;;;;;;;5.33;77.73;99085.34;5097389;28;20040;-92
2022/02/26 10:40:55;;;;;;;3.90;1.83;;;;;;;5.52;73.89;99075.66;5096809;28;20047;-92
2022/02/26 10:43:43;;;;;;;4.68;2.28;;;;;;;5.59;76.28;99105.53;5097317;28;20130;-92
2022/02/26 10:46:24;;;;;;;3.80;2.42;;;;;;;5.90;74.41;99075.56;5096383;28;20036;-92
2022/02/26 10:48:52;;;;;;;4.10;1.88;;;;;;;6.05;73.68;99047.38;5097483;28;20515;-94
2022/02/26 10:51:20;;;;;;;2.83;1.90;;;;;;;5.58;76.36;99077.41;5096438;28;20043;-94
2022/02/26 10:53:48;;;;;;;3.65;2.38;;;;;;;6.13;73.14;99045.56;5096856;28;20497;-93
2022/02/26 10:56:15;;;;;;;5.32;2.28;;;;;;;6.43;71.45;99041.03;5096842;28;20516;-93
2022/02/26 10:58:42;;;;;;;4.07;2.03;;;;;;;6.75;70.60;99022.31;5096498;28;20040;-94
2022/02/26 11:01:10;;;;;;;4.25;2.20;;;;;;;6.58;71.30;99040.91;5095568;28;20050;-94
2022/02/26 11:03:36;;;;;;;2.35;1.70;;;;;;;6.98;70.34;99035.31;5097528;28;20109;-94
2022/02/26 11:06:04;;;;;;;3.22;1.90;;;;;;;6.96;67.24;99055.59;5096630;28;20130;-93
2022/02/26 11:08:30;;;;;;;4.40;2.00;;;;;;;7.13;68.04;99060.75;5095995;28;20044;-94
2022/02/26 11:10:59;;;;;;;4.15;2.40;;;;;;;6.85;68.74;99046.88;5093875;28;20036;-94
2022/02/26 11:13:25;;;;;;;3.55;2.30;;;;;;;6.47;68.67;99026.91;5096223;28;20454;-95
2022/02/26 11:15:53;;;;;;;4.28;2.72;;;;;;;6.68;68.17;99034.69;5095621;28;20052;-92
2022/02/26 11:18:23;;;;;;;4.78;2.63;;;;;;;6.15;69.01;99043.81;5096126;28;20071;-93
2022/02/26 11:20:50;;;;;;;3.70;1.80;;;;;;;5.66;70.97;99050.13;5096033;28;20369;-92
2022/02/26 11:23:16;;;;;;;4.63;2.22;;;;;;;5.94;73.13;99007.78;5096455;28;20070;-94
2022/02/26 11:25:42;;;;;;;3.63;1.90;;;;;;;5.84;70.50;99020.16;5097041;28;20052;-92
2022/02/26 11:28:11;;;;;;;2.95;1.80;;;;;;;5.72;71.08;99047.44;5095910;28;20043;-94
2022/02/26 11:30:54;;;;;;;4.15;2.13;;;;;;;6.11;71.11;99024.44;5093652;28;20093;-94
2022/02/26 11:33:20;;;;;;;3.72;1.90;;;;;;;5.21;72.28;99008.91;5095797;28;20071;-91
2022/02/26 11:35:57;;;;;;;3.03;1.92;;;;;;;6.21;72.07;99016.50;5095862;28;20106;-94
2022/02/26 11:38:26;;;;;;;3.38;1.80;;;;;;;6.22;69.54;98992.69;5095649;28;20489;-92
2022/02/26 11:41:16;;;;;;;4.20;2.17;;;;;;;6.24;70.41;98985.66;5096016;28;20036;-92
2022/02/26 11:43:46;;;;;;;6.43;2.10;;;;;;;5.97;70.73;99007.81;5097442;28;20044;-91